Time;durP1;ratioP1;P1;durP2;ratioP2;P2;SDS_P1;SDS_P2;PMS_P1;PMS_P2;Temp;Humidity;BMP_temperature;BMP_pressure;BME280_temperature;BME280_humidity;BME280_pressure;Samples;Min_cycle;Max_cycle;Signal;HPM_P1;HPM_P2
2023/04/06 00:01:19;;;;;;;24.80;12.60;;;;;;;11.74;93.66;100041.81;105416;1263;62691;-85
2023/04/06 00:03:49;;;;;;;18.50;11.40;;;;;;;11.74;93.92;100045.16;105880;1257;61180;-84
2023/04/06 00:06:18;;;;;;;24.50;13.20;;;;;;;11.74;94.04;100048.47;105428;1263;72085;-87
2023/04/06 00:08:47;;;;;;;28.90;13.50;;;;;;;11.74;94.20;100047.59;105669;1262;63602;-87
2023/04/06 00:11:16;;;;;;;27.30;15.40;;;;;;;11.74;94.18;100052.02;105756;1262;73581;-86
2023/04/06 00:13:46;;;;;;;20.30;13.50;;;;;;;11.74;94.31;100054.09;105446;1257;62752;-82
2023/04/06 00:16:14;;;;;;;22.10;12.60;;;;;;;11.76;94.46;100056.22;105745;1257;61518;-85
2023/04/06 00:18:43;;;;;;;38.40;14.70;;;;;;;11.78;94.45;100058.54;105959;1257;73946;-84
2023/04/06 00:21:13;;;;;;;28.70;14.30;;;;;;;11.81;94.45;100060.41;105504;1257;62684;-87
2023/04/06 00:23:41;;;;;;;22.30;11.60;;;;;;;11.85;94.47;100059.23;105610;1257;72652;-87
2023/04/06 00:26:10;;;;;;;13.10;10.20;;;;;;;11.87;94.22;100055.60;105766;1258;60303;-87
2023/04/06 00:28:39;;;;;;;12.50;9.80;;;;;;;11.87;94.18;100050.54;105637;1262;60336;-88
2023/04/06 00:31:08;;;;;;;18.90;9.90;;;;;;;11.88;94.12;100045.36;105542;1261;74353;-88
2023/04/06 00:33:37;;;;;;;16.10;8.40;;;;;;;11.91;94.00;100050.39;105430;1262;64814;-87
2023/04/06 00:36:05;;;;;;;22.80;11.40;;;;;;;11.91;93.71;100051.07;105467;1257;73413;-87
2023/04/06 00:38:34;;;;;;;19.00;10.10;;;;;;;11.87;93.62;100053.31;105524;1257;62987;-85
2023/04/06 00:41:03;;;;;;;11.40;9.40;;;;;;;11.82;93.69;100052.61;105435;1259;60639;-86
2023/04/06 00:43:33;;;;;;;12.20;9.50;;;;;;;11.77;93.85;100052.11;105882;1262;72894;-86
2023/04/06 00:46:01;;;;;;;16.40;8.60;;;;;;;11.73;93.98;100057.46;106176;1260;63755;-85
2023/04/06 00:48:35;;;;;;;;;;;;;;;11.70;94.02;100055.96;105521;1260;73319;-89
2023/04/06 00:51:04;;;;;;;19.10;9.60;;;;;;;11.65;94.28;100053.19;105943;1256;61908;-87
2023/04/06 00:53:33;;;;;;;17.90;10.30;;;;;;;11.61;94.30;100050.30;105915;1256;59584;-85
2023/04/06 00:56:03;;;;;;;12.70;9.80;;;;;;;11.58;94.34;100054.52;105921;1256;74089;-87
2023/04/06 00:58:40;;;;;;;16.40;9.50;;;;;;;11.59;94.56;100061.52;105878;1257;64630;-87
2023/04/06 01:01:09;;;;;;;17.10;10.30;;;;;;;11.59;94.29;100066.05;105845;1254;73262;-89
2023/04/06 01:03:42;;;;;;;18.00;10.80;;;;;;;11.57;94.21;100071.59;105804;1256;61378;-85
2023/04/06 01:06:12;;;;;;;21.10;11.80;;;;;;;11.51;94.04;100073.62;105946;1256;61320;-83
2023/04/06 01:08:41;;;;;;;23.50;12.20;;;;;;;11.39;94.27;100072.79;105924;1256;73762;-86
2023/04/06 01:11:17;;;;;;;19.60;12.20;;;;;;;11.25;94.84;100083.04;105862;1256;64538;-84
2023/04/06 01:13:46;;;;;;;20.00;10.90;;;;;;;11.10;95.44;100075.15;106296;1257;73598;-86
2023/04/06 01:16:23;;;;;;;24.50;10.60;;;;;;;11.03;95.99;100073.95;105926;1253;61979;-82
2023/04/06 01:19:13;;;;;;;17.90;12.30;;;;;;;11.01;96.26;100072.34;105903;1257;61082;-86
2023/04/06 01:21:49;;;;;;;15.00;10.50;;;;;;;11.01;96.55;100068.29;105996;1257;73752;-85
2023/04/06 01:24:40;;;;;;;16.90;10.60;;;;;;;11.02;96.70;100064.55;105835;1254;64533;-84
2023/04/06 01:27:27;;;;;;;17.50;11.80;;;;;;;11.00;96.78;100063.65;105901;1254;73642;-87
2023/04/06 01:30:17;;;;;;;24.20;11.20;;;;;;;10.99;97.03;100071.08;105890;1255;62875;-81
2023/04/06 01:32:49;;;;;;;15.70;10.50;;;;;;;10.96;97.17;100074.23;105850;1255;61237;-85
2023/04/06 01:35:26;;;;;;;21.60;10.90;;;;;;;10.93;97.37;100076.20;105951;1256;73044;-86
2023/04/06 01:38:04;;;;;;;16.20;10.60;;;;;;;10.89;97.66;100076.11;105967;1256;64834;-86
2023/04/06 01:40:34;;;;;;;18.70;11.10;;;;;;;10.91;98.07;100078.59;105998;1254;72676;-85
2023/04/06 01:43:02;;;;;;;18.20;10.40;;;;;;;10.94;97.97;100082.09;106269;1256;61693;-86
2023/04/06 01:45:35;;;;;;;15.20;10.40;;;;;;;10.95;97.88;100080.98;105882;1256;60314;-86
2023/04/06 01:48:12;;;;;;;20.70;10.90;;;;;;;10.95;97.95;100080.59;106099;1256;72988;-83
2023/04/06 01:50:42;;;;;;;18.10;10.50;;;;;;;10.95;98.06;100079.55;106472;1256;63842;-83
2023/04/06 01:53:11;;;;;;;25.70;11.50;;;;;;;10.98;98.20;100081.61;106246;1254;73490;-85
2023/04/06 01:55:41;;;;;;;22.90;12.20;;;;;;;11.04;98.48;100081.03;106090;1253;63047;-88
2023/04/06 01:58:23;;;;;;;20.00;11.30;;;;;;;11.12;98.62;100082.34;106272;1256;61251;-84
2023/04/06 02:00:52;;;;;;;21.20;12.80;;;;;;;11.18;98.09;100084.93;106794;1252;72939;-86
2023/04/06 02:03:22;;;;;;;18.30;11.50;;;;;;;11.22;97.82;100085.55;106165;1257;64655;-85
2023/04/06 02:05:58;;;;;;;22.40;12.10;;;;;;;11.24;97.59;100090.15;105992;1254;72712;-85
2023/04/06 02:08:33;;;;;;;23.00;13.20;;;;;;;11.23;97.42;100092.80;106103;1256;61172;-85
2023/04/06 02:11:02;;;;;;;22.30;13.10;;;;;;;11.24;97.12;100091.70;106000;1255;61442;-86
2023/04/06 02:13:34;;;;;;;23.40;13.40;;;;;;;11.21;96.72;100095.90;105917;1256;73924;-88
2023/04/06 02:16:03;;;;;;;22.50;13.20;;;;;;;11.17;96.79;100090.08;106057;1254;63809;-87
2023/04/06 02:18:35;;;;;;;22.50;14.10;;;;;;;11.16;96.93;100090.52;105967;1255;73533;-86
2023/04/06 02:21:04;;;;;;;30.80;14.30;;;;;;;11.16;96.93;100091.86;106187;1257;63311;-83
2023/04/06 02:23:32;;;;;;;21.00;12.40;;;;;;;11.15;96.98;100093.50;105983;1256;60190;-86
2023/04/06 02:26:01;;;;;;;20.30;12.50;;;;;;;11.14;97.01;100096.41;105950;1259;74079;-84
2023/04/06 02:28:34;;;;;;;18.00;10.80;;;;;;;11.09;97.07;100098.15;105972;1266;64979;-84
2023/04/06 02:31:03;;;;;;;15.80;10.20;;;;;;;11.03;97.42;100100.90;105922;1256;73718;-84
2023/04/06 02:33:32;;;;;;;19.10;10.30;;;;;;;10.96;97.93;100102.07;105997;1254;63252;-85
2023/04/06 02:36:01;;;;;;;18.10;10.60;;;;;;;10.88;98.22;100103.63;105965;1257;61029;-86
2023/04/06 02:38:30;;;;;;;20.00;10.70;;;;;;;10.80;98.67;100107.66;106159;1255;73930;-86
2023/04/06 02:41:00;;;;;;;18.60;11.60;;;;;;;10.77;99.08;100112.28;106303;1256;63510;-87
2023/04/06 02:43:30;;;;;;;22.40;10.90;;;;;;;10.74;99.50;100114.76;105807;1257;73834;-86
2023/04/06 02:46:14;;;;;;;16.70;10.30;;;;;;;10.70;99.94;100118.15;106918;1256;61862;-85
2023/04/06 02:48:44;;;;;;;14.10;9.30;;;;;;;10.68;100.00;100121.10;106064;1253;61197;-85
2023/04/06 02:51:14;;;;;;;15.40;9.80;;;;;;;10.66;100.00;100125.48;105955;1256;74028;-86
2023/04/06 02:53:45;;;;;;;13.70;10.30;;;;;;;10.60;100.00;100119.03;106065;1254;64553;-85
2023/04/06 02:56:16;;;;;;;15.30;9.50;;;;;;;10.60;100.00;100121.52;106079;1257;72374;-84
2023/04/06 02:58:48;;;;;;;14.70;10.60;;;;;;;10.58;100.00;100122.86;106219;1254;62992;-83
2023/04/06 03:01:17;;;;;;;17.20;10.70;;;;;;;10.53;100.00;100123.01;106100;1262;61442;-85
2023/04/06 03:03:47;;;;;;;16.40;11.60;;;;;;;10.48;100.00;100126.48;105998;1256;72929;-84
2023/04/06 03:06:21;;;;;;;;;;;;;;;10.46;100.00;100131.02;105902;1254;62790;-85
2023/04/06 03:08:55;;;;;;;14.20;8.80;;;;;;;10.43;100.00;100133.48;105951;1254;73773;-83
2023/04/06 03:11:26;;;;;;;14.00;10.20;;;;;;;10.37;100.00;100136.48;106418;1254;63104;-83
2023/04/06 03:13:55;;;;;;;13.60;9.60;;;;;;;10.36;100.00;100141.46;105996;1256;61173;-86
2023/04/06 03:16:26;;;;;;;13.00;8.60;;;;;;;10.33;100.00;100145.83;105755;1260;74036;-87
2023/04/06 03:18:58;;;;;;;11.10;8.80;;;;;;;10.30;100.00;100144.97;106044;1256;63805;-86
2023/04/06 03:22:44;;;;;;;15.00;10.00;;;;;;;10.34;100.00;100147.20;102680;1292;600728;-83
2023/04/06 03:25:16;;;;;;;13.50;9.10;;;;;;;10.34;100.00;100151.35;104900;1271;62735;-84
2023/04/06 03:27:45;;;;;;;13.60;10.00;;;;;;;10.37;100.00;100151.15;104737;1274;60333;-88
2023/04/06 03:30:18;;;;;;;10.90;7.20;;;;;;;10.41;100.00;100158.05;104979;1270;73053;-85
2023/04/06 03:32:48;;;;;;;9.00;8.00;;;;;;;10.46;100.00;100157.22;105038;1271;63897;-85
2023/04/06 03:35:18;;;;;;;12.00;7.80;;;;;;;10.47;100.00;100155.77;104415;1263;629364;-84
2023/04/06 03:37:47;;;;;;;9.30;8.20;;;;;;;10.48;100.00;100155.15;105021;1263;63748;-85
2023/04/06 03:40:15;;;;;;;7.20;6.10;;;;;;;10.51;100.00;100151.13;105584;1257;61063;-85
2023/04/06 03:42:44;;;;;;;11.70;7.50;;;;;;;10.52;100.00;100152.47;105498;1261;71333;-86
2023/04/06 03:45:17;;;;;;;10.30;7.30;;;;;;;10.54;100.00;100157.15;105897;1256;63666;-87
2023/04/06 03:47:48;;;;;;;11.30;8.80;;;;;;;10.55;100.00;100156.56;106019;1256;71461;-85
2023/04/06 03:50:20;;;;;;;7.30;6.10;;;;;;;10.53;100.00;100155.98;105804;1252;62665;-86
2023/04/06 03:52:49;;;;;;;11.60;7.60;;;;;;;10.53;100.00;100154.81;105900;1257;61952;-84
2023/04/06 03:55:19;;;;;;;9.30;7.20;;;;;;;10.53;100.00;100159.89;105772;1266;73900;-87
2023/04/06 03:57:48;;;;;;;9.80;8.60;;;;;;;10.56;100.00;100158.98;105936;1262;64779;-86
2023/04/06 04:00:17;;;;;;;13.10;7.30;;;;;;;10.61;100.00;100162.53;106975;1253;73653;-85
2023/04/06 04:02:46;;;;;;;10.20;6.80;;;;;;;10.63;100.00;100164.45;106448;1255;61949;-84
2023/04/06 04:05:14;;;;;;;8.20;6.80;;;;;;;10.64;100.00;100161.80;105946;1264;59988;-87
2023/04/06 04:07:43;;;;;;;10.20;7.00;;;;;;;10.68;100.00;100163.98;105995;1255;73749;-84
2023/04/06 04:10:13;;;;;;;11.50;7.00;;;;;;;10.75;100.00;100165.70;106149;1258;64827;-85
2023/04/06 04:12:42;;;;;;;9.10;7.30;;;;;;;10.79;100.00;100166.01;105948;1251;72503;-84
2023/04/06 04:15:15;;;;;;;10.00;7.30;;;;;;;10.79;100.00;100164.43;105973;1256;62665;-84
2023/04/06 04:18:00;;;;;;;9.40;6.60;;;;;;;10.84;100.00;100166.40;106120;1256;61030;-87
2023/04/06 04:20:30;;;;;;;7.50;5.80;;;;;;;10.89;100.00;100172.17;106907;1251;73961;-86
2023/04/06 04:23:06;;;;;;;7.40;5.60;;;;;;;10.89;100.00;100179.28;107454;1257;63828;-84
2023/04/06 04:25:36;;;;;;;6.70;6.00;;;;;;;10.86;100.00;100180.92;106053;1257;71803;-84
2023/04/06 04:28:04;;;;;;;9.20;6.90;;;;;;;10.79;100.00;100184.52;105897;1251;60072;-85
2023/04/06 04:30:33;;;;;;;10.70;7.90;;;;;;;10.72;100.00;100190.06;106064;1255;60828;-87
2023/04/06 04:33:02;;;;;;;12.50;9.00;;;;;;;10.68;100.00;100191.42;105845;1257;73794;-85
2023/04/06 04:35:31;;;;;;;10.80;8.50;;;;;;;10.63;100.00;100194.75;106072;1256;65430;-88
2023/04/06 04:38:00;;;;;;;11.20;8.70;;;;;;;10.57;100.00;100193.17;105785;1256;73661;-86
2023/04/06 04:40:29;;;;;;;11.30;8.40;;;;;;;10.58;100.00;100192.60;105821;1254;62923;-83
2023/04/06 04:43:11;;;;;;;10.90;9.10;;;;;;;10.63;100.00;100192.09;105847;1251;61274;-87
2023/04/06 04:45:41;;;;;;;12.70;8.40;;;;;;;10.71;100.00;100195.20;105925;1251;74059;-84
2023/04/06 04:48:19;;;;;;;14.60;9.20;;;;;;;10.74;100.00;100193.96;105889;1259;64900;-86
2023/04/06 04:50:55;;;;;;;14.60;9.80;;;;;;;10.72;100.00;100196.89;106685;1256;73624;-87
2023/04/06 04:53:26;;;;;;;10.10;8.20;;;;;;;10.73;100.00;100194.88;105865;1251;61442;-84
2023/04/06 04:55:59;;;;;;;9.70;8.10;;;;;;;10.78;100.00;100196.32;105851;1251;60695;-85
2023/04/06 04:58:30;;;;;;;9.00;6.70;;;;;;;10.79;100.00;100197.31;105776;1257;74334;-87
2023/04/06 05:01:00;;;;;;;9.20;7.00;;;;;;;10.82;100.00;100199.88;105879;1255;64574;-88
2023/04/06 05:03:29;;;;;;;8.60;6.80;;;;;;;10.85;100.00;100209.52;105913;1256;73697;-85
2023/04/06 05:06:01;;;;;;;8.10;7.30;;;;;;;10.89;100.00;100211.80;105865;1257;61659;-84
2023/04/06 05:08:33;;;;;;;7.90;6.90;;;;;;;10.93;99.99;100212.08;105958;1256;59625;-87
2023/04/06 05:11:02;;;;;;;8.40;7.50;;;;;;;10.95;99.91;100211.27;106618;1251;72736;-87
2023/04/06 05:13:35;;;;;;;9.60;6.60;;;;;;;10.97;99.91;100211.79;105941;1254;63727;-87
2023/04/06 05:16:08;;;;;;;7.90;6.90;;;;;;;11.03;99.74;100215.23;106083;1257;73459;-85
2023/04/06 05:18:36;;;;;;;7.60;6.80;;;;;;;11.07;99.11;100217.64;106128;1251;61648;-83
2023/04/06 05:21:06;;;;;;;7.60;6.80;;;;;;;11.05;98.55;100214.63;105900;1252;60987;-85
2023/04/06 05:23:41;;;;;;;9.40;7.60;;;;;;;10.99;98.29;100215.14;105918;1252;73950;-86
2023/04/06 05:26:09;;;;;;;8.70;7.20;;;;;;;10.98;98.28;100220.31;105904;1255;64603;-87
2023/04/06 05:28:39;;;;;;;13.10;8.90;;;;;;;10.94;98.07;100229.13;105980;1256;72723;-85
2023/04/06 05:31:11;;;;;;;11.80;9.30;;;;;;;10.89;98.26;100228.44;106009;1251;61353;-84
2023/04/06 05:33:46;;;;;;;10.30;8.90;;;;;;;10.88;98.53;100227.80;106188;1251;61330;-84
2023/04/06 05:36:19;;;;;;;11.30;9.20;;;;;;;10.89;98.30;100230.39;106050;1255;74005;-85
2023/04/06 05:38:52;;;;;;;9.90;8.60;;;;;;;10.85;98.05;100229.75;105858;1257;64798;-86
2023/04/06 05:41:36;;;;;;;16.10;10.50;;;;;;;10.78;98.11;100231.46;105965;1251;73681;-88
2023/04/06 05:44:08;;;;;;;12.50;9.80;;;;;;;10.74;98.63;100228.95;105973;1260;62955;-85
2023/04/06 05:46:37;;;;;;;13.00;9.60;;;;;;;10.77;98.91;100233.61;106166;1251;61332;-86
2023/04/06 05:49:06;;;;;;;11.70;8.90;;;;;;;10.79;98.85;100232.10;106069;1251;73162;-86
2023/04/06 05:51:35;;;;;;;11.60;9.00;;;;;;;10.85;99.39;100235.02;106613;1257;65067;-85
2023/04/06 05:54:04;;;;;;;11.20;8.90;;;;;;;10.94;99.09;100237.04;106747;1251;72593;-86
2023/04/06 05:56:33;;;;;;;11.50;9.50;;;;;;;10.99;98.67;100244.54;106092;1258;61716;-86
2023/04/06 05:59:02;;;;;;;11.60;10.30;;;;;;;11.02;98.10;100246.09;105980;1252;61009;-87
2023/04/06 06:01:32;;;;;;;10.20;8.50;;;;;;;10.99;97.61;100251.86;106388;1256;73745;-86
2023/04/06 06:04:01;;;;;;;12.60;11.30;;;;;;;10.97;97.70;100251.84;105788;1259;64607;-87
2023/04/06 06:06:32;;;;;;;9.90;8.90;;;;;;;10.99;97.60;100254.54;105906;1251;73769;-87
2023/04/06 06:09:11;;;;;;;10.20;9.20;;;;;;;10.97;97.57;100252.56;105990;1251;60379;-85
2023/04/06 06:11:45;;;;;;;11.30;10.10;;;;;;;10.98;97.68;100252.50;106105;1251;61342;-87
2023/04/06 06:14:16;;;;;;;13.90;9.70;;;;;;;11.05;97.91;100255.56;106206;1257;73793;-88
2023/04/06 06:16:48;;;;;;;11.30;9.60;;;;;;;11.13;97.77;100257.94;105788;1251;63884;-87
2023/04/06 06:19:17;;;;;;;8.90;7.30;;;;;;;11.23;97.27;100262.70;105948;1251;72843;-86
2023/04/06 06:21:46;;;;;;;9.60;8.60;;;;;;;11.26;96.47;100264.40;106115;1252;62696;-86
2023/04/06 06:24:19;;;;;;;9.80;8.40;;;;;;;11.24;96.13;100269.45;106361;1257;59592;-87
2023/04/06 06:26:48;;;;;;;10.30;8.60;;;;;;;11.24;95.89;100270.88;106591;1255;73956;-85
2023/04/06 06:29:18;;;;;;;8.90;7.50;;;;;;;11.23;95.71;100275.34;106437;1257;63946;-86
2023/04/06 06:31:47;;;;;;;10.30;8.20;;;;;;;11.22;95.68;100279.75;106586;1251;73850;-87
2023/04/06 06:34:18;;;;;;;12.00;8.80;;;;;;;11.24;95.61;100277.16;106490;1251;63153;-88
2023/04/06 06:36:51;;;;;;;9.70;7.90;;;;;;;11.26;95.59;100279.69;106196;1251;60297;-85
2023/04/06 06:39:21;;;;;;;10.90;9.10;;;;;;;11.26;95.43;100281.38;105923;1256;73707;-86
2023/04/06 06:41:50;;;;;;;12.60;8.90;;;;;;;11.30;95.57;100284.09;106097;1253;64771;-86
2023/04/06 06:44:22;;;;;;;11.40;9.90;;;;;;;11.42;95.95;100281.03;106108;1251;73706;-87
2023/04/06 06:46:55;;;;;;;10.20;8.80;;;;;;;11.58;95.68;100280.26;106137;1255;60369;-85
2023/04/06 06:49:24;;;;;;;11.30;8.80;;;;;;;11.71;94.47;100279.38;105942;1251;61675;-86
2023/04/06 06:51:52;;;;;;;8.20;7.10;;;;;;;11.78;93.92;100281.14;106148;1256;73445;-87
2023/04/06 06:54:21;;;;;;;9.00;7.60;;;;;;;11.87;93.30;100279.66;105949;1257;64713;-87
2023/04/06 06:56:49;;;;;;;9.60;8.50;;;;;;;11.99;93.33;100282.65;105957;1257;73672;-86
2023/04/06 06:59:21;;;;;;;8.70;7.80;;;;;;;12.17;92.86;100287.17;105846;1255;63098;-85
2023/04/06 07:01:51;;;;;;;8.90;7.60;;;;;;;12.31;91.73;100290.33;105928;1255;61001;-85
2023/04/06 07:04:20;;;;;;;9.00;7.30;;;;;;;12.41;90.90;100287.36;105927;1251;74029;-86
2023/04/06 07:06:52;;;;;;;10.10;7.10;;;;;;;12.53;90.54;100292.27;105859;1251;65733;-85
2023/04/06 07:09:21;;;;;;;10.80;7.60;;;;;;;12.62;89.01;100291.60;106010;1251;71650;-82
2023/04/06 07:11:50;;;;;;;9.10;7.90;;;;;;;12.68;87.57;100297.32;106090;1257;60535;-85
2023/04/06 07:14:20;;;;;;;10.60;7.10;;;;;;;12.73;86.85;100298.29;105812;1251;61081;-83
2023/04/06 07:16:50;;;;;;;8.20;6.00;;;;;;;12.87;86.41;100295.38;106036;1257;74024;-86
2023/04/06 07:19:19;;;;;;;6.90;6.10;;;;;;;13.00;85.65;100296.85;106012;1251;64710;-85
2023/04/06 07:21:51;;;;;;;6.20;5.10;;;;;;;13.13;85.13;100294.29;106717;1251;74084;-85
2023/04/06 07:24:20;;;;;;;6.90;5.10;;;;;;;13.30;84.69;100296.36;106751;1255;61760;-84
2023/04/06 07:26:52;;;;;;;6.40;5.10;;;;;;;13.46;84.50;100299.16;106299;1251;61013;-84
2023/04/06 07:29:23;;;;;;;7.10;6.40;;;;;;;13.66;83.71;100302.87;105868;1251;72943;-86
2023/04/06 07:31:52;;;;;;;6.50;5.40;;;;;;;13.81;83.00;100299.77;105983;1256;64910;-84
2023/04/06 07:34:21;;;;;;;8.20;6.20;;;;;;;13.95;82.44;100303.77;105989;1251;74272;-86
2023/04/06 07:36:52;;;;;;;7.10;5.60;;;;;;;14.03;81.81;100308.55;106118;1256;61102;-87
2023/04/06 07:51:17;;;;;;;16.20;5.10;;;;;;;14.01;78.92;100320.16;103282;1290;600183;-84
2023/04/06 07:53:48;;;;;;;6.10;4.30;;;;;;;13.90;79.52;100324.16;105775;1260;60560;-85
2023/04/06 07:56:17;;;;;;;6.40;5.30;;;;;;;13.87;80.02;100315.65;105881;1267;61348;-87
2023/04/06 07:58:55;;;;;;;4.50;4.10;;;;;;;13.87;79.99;100323.02;105687;1260;72986;-84
2023/04/06 08:01:27;;;;;;;4.40;4.00;;;;;;;13.83;80.15;100324.73;106176;1260;64268;-84
2023/04/06 08:03:56;;;;;;;4.10;3.80;;;;;;;13.80;80.15;100327.26;105791;1260;754592;-82
2023/04/06 08:06:25;;;;;;;5.40;3.90;;;;;;;13.77;80.30;100327.34;106154;1260;61026;-83
2023/04/06 08:08:58;;;;;;;3.10;2.80;;;;;;;13.74;79.93;100331.98;106224;1260;60651;-84
2023/04/06 08:11:27;;;;;;;5.40;3.10;;;;;;;13.63;79.71;100330.48;106774;1263;73563;-86
2023/04/06 08:13:57;;;;;;;6.20;3.70;;;;;;;13.50;80.09;100335.52;106392;1263;63834;-86
2023/04/06 08:16:27;;;;;;;4.10;3.20;;;;;;;13.40;80.68;100331.23;106113;1260;74504;-86
2023/04/06 08:18:57;;;;;;;4.70;3.10;;;;;;;13.38;81.15;100333.88;105745;1265;61400;-86
2023/04/06 08:21:26;;;;;;;5.80;3.90;;;;;;;13.36;81.29;100335.05;106310;1260;59981;-89
2023/04/06 08:23:55;;;;;;;6.50;3.20;;;;;;;13.37;81.38;100338.01;106053;1261;74108;-87
2023/04/06 08:26:25;;;;;;;7.10;5.00;;;;;;;13.35;81.25;100341.13;106795;1255;63901;-88
2023/04/06 08:28:53;;;;;;;5.90;4.80;;;;;;;13.32;81.45;100344.86;106051;1251;72608;-86
2023/04/06 08:31:22;;;;;;;6.50;4.10;;;;;;;13.27;81.40;100339.05;106302;1251;62716;-87
2023/04/06 08:33:51;;;;;;;9.00;4.80;;;;;;;13.21;81.55;100342.77;106455;1251;61678;-89
2023/04/06 08:36:23;;;;;;;18.10;7.90;;;;;;;13.14;81.82;100342.63;106570;1256;74034;-86
2023/04/06 08:38:52;;;;;;;14.50;7.30;;;;;;;13.04;82.03;100349.48;106459;1257;63708;-86
2023/04/06 08:41:20;;;;;;;20.30;7.90;;;;;;;12.92;82.42;100349.92;106459;1251;73671;-87
2023/04/06 08:43:54;;;;;;;14.60;7.80;;;;;;;12.82;82.89;100352.91;106640;1256;59665;-87
2023/04/06 08:46:29;;;;;;;14.20;7.80;;;;;;;12.75;83.32;100356.03;106887;1256;60241;-88
2023/04/06 08:49:02;;;;;;;13.00;7.20;;;;;;;12.68;83.68;100355.55;107209;1255;74780;-88
2023/04/06 08:51:31;;;;;;;11.00;6.50;;;;;;;12.63;84.08;100365.33;106751;1251;64576;-86
2023/04/06 08:54:02;;;;;;;13.70;7.60;;;;;;;12.59;84.41;100362.48;107250;1251;72774;-86
2023/04/06 08:56:34;;;;;;;9.00;6.30;;;;;;;12.56;84.75;100367.77;106836;1251;63155;-84
2023/04/06 08:59:02;;;;;;;6.50;5.10;;;;;;;12.50;84.88;100371.02;106507;1255;60250;-86
2023/04/06 09:01:34;;;;;;;7.10;5.30;;;;;;;12.38;85.41;100371.52;106727;1255;74257;-86
2023/04/06 09:04:08;;;;;;;12.50;6.30;;;;;;;12.28;86.03;100375.45;106509;1256;65194;-88
2023/04/06 09:06:38;;;;;;;8.80;6.20;;;;;;;12.21;86.69;100378.66;106670;1254;73589;-85
2023/04/06 09:09:07;;;;;;;7.50;5.70;;;;;;;12.18;87.17;100380.48;106587;1256;60583;-86
2023/04/06 09:12:05;;;;;;;6.20;4.90;;;;;;;12.15;87.41;100387.21;106697;1252;61308;-84
2023/04/06 09:14:40;;;;;;;6.50;5.50;;;;;;;12.08;87.88;100389.80;106713;1254;72680;-88
2023/04/06 09:17:09;;;;;;;7.00;5.80;;;;;;;12.04;88.68;100393.02;107642;1254;65961;-86
2023/04/06 09:19:47;;;;;;;8.90;4.70;;;;;;;12.05;89.33;100398.23;106876;1254;74362;-86
2023/04/06 09:22:17;;;;;;;5.50;3.80;;;;;;;12.06;89.68;100400.48;106736;1256;61901;-87
2023/04/06 09:24:47;;;;;;;4.20;3.70;;;;;;;12.07;89.98;100402.16;106681;1254;62202;-88
2023/04/06 09:27:38;;;;;;;8.10;3.20;;;;;;;12.09;90.32;100406.16;106653;1256;72868;-89
2023/04/06 09:30:15;;;;;;;3.10;2.80;;;;;;;12.12;90.41;100404.70;106520;1254;63704;-87
2023/04/06 09:32:55;;;;;;;3.70;3.00;;;;;;;12.16;90.51;100407.23;106429;1254;73430;-88
2023/04/06 09:35:26;;;;;;;6.50;4.00;;;;;;;12.20;90.67;100413.27;106761;1254;60024;-87
2023/04/06 09:37:55;;;;;;;8.60;4.30;;;;;;;12.22;90.88;100415.97;106933;1254;60327;-89
2023/04/06 09:40:25;;;;;;;7.60;5.40;;;;;;;12.21;90.71;100418.52;107115;1254;74015;-88
2023/04/06 09:42:57;;;;;;;4.50;4.00;;;;;;;12.16;90.63;100424.11;107165;1253;64852;-87
2023/04/06 09:45:27;;;;;;;3.20;2.90;;;;;;;12.08;89.90;100428.86;108440;1254;72612;-88
2023/04/06 09:47:59;;;;;;;3.20;2.90;;;;;;;11.97;89.89;100432.56;107502;1253;62972;-89
2023/04/06 09:50:32;;;;;;;2.40;2.00;;;;;;;11.89;90.26;100430.70;107133;1253;61119;-89
2023/04/06 09:53:01;;;;;;;1.70;1.60;;;;;;;11.80;90.29;100435.94;106812;1254;73922;-89
2023/04/06 09:55:40;;;;;;;1.20;1.10;;;;;;;11.75;90.32;100436.15;106377;1258;64731;-87
2023/04/06 09:58:19;;;;;;;1.20;1.10;;;;;;;11.74;90.64;100437.84;106470;1254;72587;-90
2023/04/06 10:01:03;;;;;;;1.40;1.20;;;;;;;11.78;90.82;100437.89;106408;1257;62640;-88
2023/04/06 10:03:32;;;;;;;;;;;;;;;11.88;90.76;100441.80;106299;1253;61206;-88
2023/04/06 10:06:04;;;;;;;2.60;1.90;;;;;;;11.96;90.74;100446.13;106827;1252;74726;-89
2023/04/06 10:08:33;;;;;;;1.70;1.60;;;;;;;12.05;90.53;100447.45;106547;1253;64254;-90
2023/04/06 10:11:03;;;;;;;2.70;1.90;;;;;;;12.12;89.97;100454.33;107460;1253;71789;-87
2023/04/06 10:13:33;;;;;;;2.90;2.10;;;;;;;12.17;89.42;100454.89;107991;1253;60706;-88
2023/04/06 10:16:07;;;;;;;3.00;2.70;;;;;;;12.20;89.45;100458.14;108268;1254;59963;-87
2023/04/06 10:18:50;;;;;;;2.90;2.60;;;;;;;12.19;89.01;100459.46;109330;1254;72931;-86
2023/04/06 10:21:23;;;;;;;3.60;2.30;;;;;;;12.24;88.71;100466.84;109072;1254;64901;-87
2023/04/06 10:23:58;;;;;;;2.10;1.90;;;;;;;12.24;88.39;100469.44;108197;1254;72625;-87
2023/04/06 10:26:26;;;;;;;;;;;;;;;12.25;87.75;100473.77;106528;1258;63208;-86
2023/04/06 10:28:55;;;;;;;2.40;2.20;;;;;;;12.23;87.59;100475.09;107010;1252;61227;-88
2023/04/06 10:31:28;;;;;;;4.40;3.40;;;;;;;12.21;87.26;100472.06;106390;1259;74034;-88
2023/04/06 10:33:58;;;;;;;4.10;3.80;;;;;;;12.21;87.23;100476.13;106237;1257;64829;-87
2023/04/06 10:36:33;;;;;;;5.40;4.90;;;;;;;12.18;86.79;100477.08;106576;1259;72024;-90
2023/04/06 10:39:04;;;;;;;3.20;2.90;;;;;;;12.11;86.42;100485.06;106458;1256;61389;-86
2023/04/06 10:41:43;;;;;;;8.10;4.00;;;;;;;12.02;86.44;100487.23;106196;1254;61330;-89
2023/04/06 10:44:21;;;;;;;3.70;2.40;;;;;;;11.95;86.48;100495.61;106199;1257;74743;-87
2023/04/06 10:46:57;;;;;;;2.20;2.00;;;;;;;11.88;86.98;100496.95;106352;1254;64769;-88
2023/04/06 10:49:26;;;;;;;2.40;1.90;;;;;;;11.87;87.28;100496.88;106094;1257;73326;-87
2023/04/06 10:51:55;;;;;;;2.00;1.50;;;;;;;11.80;86.97;100503.77;106327;1254;62003;-89
2023/04/06 10:54:25;;;;;;;2.50;1.30;;;;;;;11.72;87.16;100508.16;106293;1256;61192;-87
2023/04/06 10:56:55;;;;;;;1.40;1.20;;;;;;;11.66;87.33;100510.13;106229;1257;73185;-88
2023/04/06 10:59:25;;;;;;;1.10;1.00;;;;;;;11.62;87.69;100512.35;106205;1254;64756;-85
2023/04/06 11:01:56;;;;;;;1.10;1.10;;;;;;;11.61;88.04;100517.06;106317;1260;72636;-89
2023/04/06 11:04:25;;;;;;;2.90;2.30;;;;;;;11.64;88.02;100521.33;107196;1254;60279;-87
2023/04/06 11:07:03;;;;;;;2.80;2.30;;;;;;;11.61;87.98;100518.50;107722;1256;61041;-89
2023/04/06 11:09:32;;;;;;;3.30;2.60;;;;;;;11.61;87.91;100519.73;106269;1256;73707;-88
2023/04/06 11:12:01;;;;;;;4.90;4.30;;;;;;;11.62;88.07;100519.34;106312;1256;64299;-87
2023/04/06 11:14:30;;;;;;;6.00;4.90;;;;;;;11.63;87.66;100522.95;106430;1257;73428;-87
2023/04/06 11:17:05;;;;;;;6.40;4.70;;;;;;;11.61;87.40;100523.09;107442;1254;61855;-88
2023/04/06 11:20:10;;;;;;;5.00;4.50;;;;;;;11.58;86.71;100526.95;106539;1254;60336;-89
2023/04/06 11:22:51;;;;;;;6.70;5.40;;;;;;;11.56;86.65;100528.09;106447;1257;74103;-88
2023/04/06 11:25:20;;;;;;;6.90;5.00;;;;;;;11.57;86.65;100527.38;106312;1258;64551;-87
2023/04/06 11:27:49;;;;;;;6.40;5.60;;;;;;;11.61;86.59;100526.92;106356;1257;73836;-90
2023/04/06 11:30:25;;;;;;;6.70;5.80;;;;;;;11.65;86.13;100531.05;107003;1253;61088;-89
2023/04/06 11:33:10;;;;;;;8.10;6.70;;;;;;;11.71;85.94;100531.70;107080;1254;59337;-89
2023/04/06 11:35:46;;;;;;;7.20;5.20;;;;;;;11.74;85.03;100536.20;107177;1255;73111;-88
2023/04/06 11:38:19;;;;;;;5.90;3.40;;;;;;;11.76;84.55;100537.33;106978;1253;62780;-90
2023/04/06 11:41:01;;;;;;;3.30;2.00;;;;;;;11.76;83.60;100537.15;106948;1255;73715;-90
2023/04/06 11:43:31;;;;;;;3.10;1.90;;;;;;;11.69;82.98;100548.83;106809;1253;61801;-88